createdAt,value
2018-01-06T00:01:27.988Z,89.24
2018-01-06T00:07:32.589Z,89.36
2018-01-06T00:13:36.259Z,90.26
2018-01-06T00:19:39.698Z,90.14
2018-01-06T00:25:43.207Z,89.99
2018-01-06T00:31:46.954Z,90.38
2018-01-06T00:37:50.413Z,90.87
2018-01-06T00:43:54.171Z,90.74
2018-01-06T00:49:58.607Z,91.55
2018-01-06T00:56:02.235Z,91.23
2018-01-06T01:02:05.833Z,91.17
2018-01-06T01:08:09.285Z,90.80
2018-01-06T01:14:12.992Z,90.96
2018-01-06T01:20:16.483Z,91.64
2018-01-06T01:26:19.992Z,91.55
2018-01-06T01:32:23.790Z,91.14
2018-01-06T01:38:27.762Z,91.34
2018-01-06T01:44:31.326Z,91.28
2018-01-06T01:50:35.068Z,90.94
2018-01-06T01:56:38.511Z,91.19
2018-01-06T02:02:42.933Z,91.29
2018-01-06T02:08:46.526Z,90.79
2018-01-06T02:14:50.021Z,90.67
2018-01-06T02:20:53.996Z,90.31
2018-01-06T02:26:58.675Z,90.84
2018-01-06T02:33:02.311Z,90.12
2018-01-06T02:39:05.937Z,90.74
2018-01-06T02:45:09.410Z,90.42
2018-01-06T02:51:13.103Z,90.06
2018-01-06T02:57:16.708Z,89.08
2018-01-06T03:03:20.196Z,88.49
2018-01-06T03:09:23.957Z,88.62
2018-01-06T03:15:28.309Z,88.82
2018-01-06T03:21:31.861Z,88.38
2018-01-06T03:27:36.088Z,88.52
2018-01-06T03:33:39.608Z,89.59
2018-01-06T03:39:43.138Z,89.61
2018-01-06T03:45:47.495Z,89.25
2018-01-06T03:58:01.482Z,89.64
2018-01-06T04:04:05.854Z,89.94
2018-01-06T04:10:09.303Z,89.55
2018-01-06T04:16:13.688Z,90.00
2018-01-06T04:22:17.941Z,89.12
2018-01-06T04:28:21.441Z,89.41
2018-01-06T04:34:25.208Z,89.63
2018-01-06T04:40:29.031Z,89.43
2018-01-06T04:46:33.563Z,89.16
2018-01-06T04:52:37.148Z,88.63
2018-01-06T04:58:40.696Z,88.27
2018-01-06T05:04:44.334Z,89.49
2018-01-06T05:10:47.862Z,89.56
2018-01-06T05:16:51.677Z,88.77
2018-01-06T05:22:57.602Z,90.61
2018-01-06T05:29:01.146Z,90.35
2018-01-06T05:35:04.835Z,90.31
2018-01-06T05:41:08.766Z,90.32
2018-01-06T05:47:13.041Z,90.60
2018-01-06T05:53:16.743Z,89.83
2018-01-06T05:59:20.254Z,89.92
2018-01-06T06:05:24.184Z,90.20
2018-01-06T06:11:28.582Z,90.56
2018-01-06T06:17:32.253Z,91.21
2018-01-06T06:23:36.768Z,90.84
2018-01-06T06:29:41.032Z,91.25
2018-01-06T06:35:45.503Z,91.11
2018-01-06T06:41:49.725Z,91.04
2018-01-06T06:47:53.955Z,91.25
2018-01-06T06:53:57.476Z,91.20
2018-01-06T07:00:00.948Z,90.78
2018-01-06T07:06:04.456Z,90.94
2018-01-06T07:12:07.928Z,91.22
2018-01-06T07:18:11.353Z,91.24
2018-01-06T07:24:15.128Z,91.40
2018-01-06T07:30:18.635Z,92.24
2018-01-06T07:36:22.147Z,91.68
2018-01-06T07:42:25.666Z,91.24
2018-01-06T07:48:29.679Z,91.39
2018-01-06T07:54:33.293Z,90.80
2018-01-06T08:00:36.801Z,90.46
2018-01-06T08:06:41.274Z,89.53
2018-01-06T08:12:45.555Z,89.99
2018-01-06T08:18:49.783Z,90.74
2018-01-06T08:24:53.560Z,90.53
2018-01-06T08:30:58.172Z,89.80
2018-01-06T08:37:02.426Z,89.73
2018-01-06T08:43:05.871Z,89.60
2018-01-06T08:49:09.407Z,89.26
2018-01-06T08:55:12.878Z,88.67
2018-01-06T09:01:16.463Z,88.64
2018-01-06T09:07:19.940Z,88.72
2018-01-06T09:13:23.419Z,88.23
2018-01-06T09:19:27.798Z,87.35
2018-01-06T09:25:31.397Z,86.61
2018-01-06T09:31:35.714Z,86.87
2018-01-06T09:37:39.359Z,87.00
2018-01-06T09:43:42.914Z,86.28
2018-01-06T09:49:46.349Z,85.92
2018-01-06T09:55:50.587Z,85.54
2018-01-06T10:01:54.034Z,85.05
2018-01-06T10:07:58.099Z,83.63
2018-01-06T10:14:01.637Z,82.87
2018-01-06T10:20:05.249Z,82.26
2018-01-06T10:26:08.737Z,82.11
2018-01-06T10:32:12.311Z,80.91
2018-01-06T10:38:15.836Z,80.21
2018-01-06T10:44:19.328Z,78.83
2018-01-06T10:50:22.898Z,78.14
2018-01-06T10:56:26.880Z,77.83
2018-01-06T11:02:30.664Z,78.78
2018-01-06T11:08:34.117Z,77.82
2018-01-06T11:14:37.763Z,78.72
2018-01-06T11:20:41.241Z,78.05
2018-01-06T11:26:44.773Z,79.34
2018-01-06T11:32:48.317Z,77.95
2018-01-06T11:38:52.517Z,77.23
2018-01-06T11:44:58.029Z,77.02
2018-01-06T11:51:01.489Z,76.56
2018-01-06T11:57:04.984Z,77.69
2018-01-06T12:03:10.012Z,76.67
2018-01-06T12:09:13.520Z,76.52
2018-01-06T12:15:16.957Z,76.58
2018-01-06T12:21:20.427Z,76.27
2018-01-06T12:27:25.166Z,76.12
2018-01-06T12:33:28.716Z,76.96
2018-01-06T12:39:32.312Z,77.83
2018-01-06T12:45:35.754Z,77.12
2018-01-06T12:51:39.218Z,77.41
2018-01-06T12:57:42.794Z,77.42
2018-01-06T13:03:46.410Z,77.76
2018-01-06T13:09:50.001Z,77.29
2018-01-06T13:15:53.554Z,78.08
2018-01-06T13:21:57.769Z,78.24
2018-01-06T13:28:01.374Z,79.14
2018-01-06T13:34:05.672Z,79.48
2018-01-06T13:40:09.936Z,78.18
2018-01-06T13:46:14.190Z,79.36
2018-01-06T13:52:17.794Z,80.70
2018-01-06T13:58:21.307Z,80.28
2018-01-06T14:04:25.336Z,81.62
2018-01-06T14:10:29.150Z,81.80
2018-01-06T14:16:32.652Z,82.63
2018-01-06T14:22:36.166Z,84.50
2018-01-06T14:28:41.189Z,84.68
2018-01-06T14:34:44.640Z,83.61
2018-01-06T14:40:48.740Z,84.48
2018-01-06T14:46:52.400Z,85.27
2018-01-06T14:52:57.494Z,85.79
2018-01-06T14:59:01.112Z,85.61
2018-01-06T15:05:04.919Z,86.27
2018-01-06T15:11:08.383Z,86.16
2018-01-06T15:17:12.019Z,86.53
2018-01-06T15:23:15.494Z,87.45
2018-01-06T15:29:19.079Z,87.99
2018-01-06T15:35:22.837Z,88.02
2018-01-06T15:41:26.486Z,88.27
2018-01-06T15:47:30.466Z,88.31
2018-01-06T15:53:34.025Z,88.37
2018-01-06T15:59:37.490Z,88.25
2018-01-06T16:05:41.716Z,87.71
2018-01-06T16:11:45.930Z,87.77
2018-01-06T16:17:49.438Z,87.93
2018-01-06T16:23:53.123Z,88.53
2018-01-06T16:29:57.692Z,88.76
2018-01-06T16:36:01.313Z,88.75
2018-01-06T16:42:05.081Z,88.01
2018-01-06T16:48:09.603Z,87.52
2018-01-06T16:54:13.155Z,87.81
2018-01-06T17:00:16.839Z,87.55
2018-01-06T17:06:20.645Z,87.49
2018-01-06T17:12:24.588Z,87.67
2018-01-06T17:18:28.544Z,88.12
2018-01-06T17:24:32.126Z,88.29
2018-01-06T17:30:35.610Z,88.86
2018-01-06T17:36:39.095Z,88.32
2018-01-06T17:42:43.532Z,87.86
2018-01-06T17:48:47.768Z,87.82
2018-01-06T17:54:51.378Z,87.70
2018-01-06T18:00:55.161Z,87.88
2018-01-06T18:06:58.845Z,88.46
2018-01-06T18:13:02.320Z,89.14
2018-01-06T18:19:06.618Z,89.04
2018-01-06T18:25:10.108Z,89.32
2018-01-06T18:31:13.617Z,89.08
2018-01-06T18:37:17.890Z,89.55
2018-01-06T18:43:21.337Z,89.98
2018-01-06T18:49:26.044Z,90.01
2018-01-06T18:55:29.586Z,89.06
2018-01-06T19:01:33.035Z,88.98
2018-01-06T19:07:36.590Z,89.06
2018-01-06T19:13:40.062Z,89.04
2018-01-06T19:19:43.565Z,88.48
2018-01-06T19:25:47.007Z,87.95
2018-01-06T19:31:50.677Z,87.71
2018-01-06T19:37:55.272Z,86.96
2018-01-06T19:43:58.756Z,86.65
2018-01-06T19:50:02.209Z,86.54
2018-01-06T19:56:05.670Z,86.41
2018-01-06T20:02:09.172Z,86.68
2018-01-06T20:08:12.650Z,86.71
2018-01-06T20:14:16.930Z,86.91
2018-01-06T20:20:20.478Z,86.79
2018-01-06T20:26:24.722Z,86.65
2018-01-06T20:32:28.945Z,86.81
2018-01-06T20:38:32.752Z,87.32
2018-01-06T20:44:36.238Z,87.19
2018-01-06T20:50:39.846Z,87.25
2018-01-06T20:56:43.323Z,87.65
2018-01-06T21:02:48.297Z,87.56
2018-01-06T21:08:51.907Z,87.64
2018-01-06T21:14:55.483Z,87.53
2018-01-06T21:20:59.145Z,87.71
2018-01-06T21:27:02.744Z,87.80
2018-01-06T21:33:06.995Z,87.81
2018-01-06T21:39:10.601Z,87.57
2018-01-06T21:45:14.173Z,87.74
2018-01-06T21:51:17.720Z,87.77
2018-01-06T21:57:21.219Z,88.06
2018-01-06T22:03:24.716Z,88.51
2018-01-06T22:09:28.653Z,88.69
2018-01-06T22:15:32.254Z,89.07
2018-01-06T22:21:35.745Z,89.08
2018-01-06T22:27:39.188Z,88.63
2018-01-06T22:33:42.707Z,88.69
2018-01-06T22:39:46.351Z,88.58
2018-01-06T22:45:49.968Z,88.44
2018-01-06T22:51:53.466Z,88.38
2018-01-06T22:57:58.145Z,87.97
2018-01-06T23:04:01.728Z,87.63
2018-01-06T23:10:05.250Z,87.51
2018-01-06T23:16:09.639Z,87.98
2018-01-06T23:22:13.142Z,88.50
2018-01-06T23:28:16.904Z,89.47
2018-01-06T23:34:20.428Z,89.87
2018-01-06T23:40:24.580Z,89.73
2018-01-06T23:46:28.381Z,89.68
2018-01-06T23:52:32.892Z,90.17
2018-01-06T23:58:37.329Z,90.23
